createdAt,value
2019-01-15T00:00:33.076Z,99795.27
2019-01-15T00:03:37.540Z,99799.99
2019-01-15T00:06:41.011Z,99805.89
2019-01-15T00:09:44.443Z,99813.33
2019-01-15T00:12:47.918Z,99813.23
2019-01-15T00:15:52.415Z,99812.38
2019-01-15T00:18:57.004Z,99804.94
2019-01-15T00:22:01.461Z,99809.75
2019-01-15T00:25:06.033Z,99804.11
2019-01-15T00:28:09.497Z,99807.29
2019-01-15T00:31:14.012Z,99799.77
2019-01-15T00:34:19.560Z,99801.66
2019-01-15T00:37:22.985Z,99803.34
2019-01-15T00:40:26.431Z,99812.18
2019-01-15T00:43:29.930Z,99812.92
2019-01-15T00:46:34.488Z,99809.18
2019-01-15T00:49:38.000Z,99813.95
2019-01-15T00:52:41.486Z,99830.69
2019-01-15T00:55:45.090Z,99826.83
2019-01-15T00:58:48.599Z,99826.45
2019-01-15T01:01:52.053Z,99820.80
2019-01-15T01:04:55.577Z,99819.11
2019-01-15T01:08:00.123Z,99818.56
2019-01-15T01:11:03.719Z,99833.03
2019-01-15T01:14:07.334Z,99829.09
2019-01-15T01:17:10.838Z,99823.05
2019-01-15T01:20:16.984Z,99822.19
2019-01-15T01:23:20.417Z,99833.58
2019-01-15T01:26:23.993Z,99827.34
2019-01-15T01:29:27.429Z,99841.27
2019-01-15T01:32:30.913Z,99828.57
2019-01-15T01:35:34.493Z,99839.18
2019-01-15T01:38:38.019Z,99848.30
2019-01-15T01:41:41.501Z,99839.95
2019-01-15T01:44:45.046Z,99859.31
2019-01-15T01:47:48.505Z,99857.59
2019-01-15T01:50:52.026Z,99848.02
2019-01-15T01:53:55.504Z,99843.53
2019-01-15T01:57:00.038Z,99852.34
2019-01-15T02:00:12.895Z,99848.10
2019-01-15T02:03:16.345Z,99846.88
2019-01-15T02:06:19.954Z,99849.50
2019-01-15T02:09:26.529Z,99860.52
2019-01-15T02:12:36.869Z,99864.83
2019-01-15T02:15:36.330Z,99877.21
2019-01-15T02:18:39.803Z,99867.55
2019-01-15T02:21:43.306Z,99866.82
2019-01-15T02:24:46.794Z,99860.65
2019-01-15T02:27:53.345Z,99866.73
2019-01-15T02:30:57.794Z,99869.37
2019-01-15T02:34:03.377Z,99863.36
2019-01-15T02:37:06.842Z,99876.11
2019-01-15T02:40:11.139Z,99877.42
2019-01-15T02:43:14.663Z,99869.53
2019-01-15T02:46:18.178Z,99885.23
2019-01-15T02:49:22.710Z,99885.31
2019-01-15T02:52:29.685Z,99893.21
2019-01-15T02:55:33.189Z,99892.02
2019-01-15T02:58:36.685Z,99884.95
2019-01-15T03:01:41.210Z,99885.89
2019-01-15T03:04:51.474Z,99887.29
2019-01-15T03:07:54.955Z,99893.00
2019-01-15T03:10:59.494Z,99901.30
2019-01-15T03:14:04.019Z,99897.36
2019-01-15T03:17:10.717Z,99898.67
2019-01-15T03:20:14.606Z,99896.13
2019-01-15T03:23:18.122Z,99909.36
2019-01-15T03:26:21.709Z,99898.27
2019-01-15T03:29:25.218Z,99899.98
2019-01-15T03:32:28.717Z,99915.28
2019-01-15T03:35:32.157Z,99915.36
2019-01-15T03:38:35.717Z,99912.81
2019-01-15T03:41:39.227Z,99928.14
2019-01-15T03:44:43.751Z,99918.94
2019-01-15T03:47:47.237Z,99921.20
2019-01-15T03:50:50.784Z,99914.62
2019-01-15T03:53:56.300Z,99929.45
2019-01-15T03:56:59.792Z,99924.20
2019-01-15T04:00:03.776Z,99929.45
2019-01-15T04:03:07.398Z,99930.77
2019-01-15T04:06:11.932Z,99936.97
2019-01-15T04:09:16.457Z,99928.14
2019-01-15T04:12:19.968Z,99928.30
2019-01-15T04:15:25.512Z,99926.05
2019-01-15T04:18:30.075Z,99933.03
2019-01-15T04:21:39.316Z,99947.20
2019-01-15T04:24:42.773Z,99945.48
2019-01-15T04:27:46.250Z,99959.58
2019-01-15T04:30:49.687Z,99952.70
2019-01-15T04:33:53.499Z,99956.49
2019-01-15T04:36:58.009Z,99955.71
2019-01-15T04:40:03.713Z,99954.23
2019-01-15T04:43:07.156Z,99955.55
2019-01-15T04:46:10.670Z,99951.31
2019-01-15T04:49:14.154Z,99958.27
2019-01-15T04:52:18.142Z,99958.80
2019-01-15T04:55:22.734Z,99960.52
2019-01-15T04:58:28.277Z,99968.86
2019-01-15T05:01:32.805Z,99969.23
2019-01-15T05:04:36.241Z,99964.75
2019-01-15T05:07:40.791Z,99970.95
2019-01-15T05:10:44.235Z,99982.02
2019-01-15T05:13:47.717Z,99989.90
2019-01-15T05:16:51.152Z,99978.52
2019-01-15T05:19:54.623Z,99983.78
2019-01-15T05:22:58.098Z,99980.32
2019-01-15T05:26:01.601Z,99994.30
2019-01-15T05:29:07.146Z,99985.17
2019-01-15T05:32:10.583Z,99996.10
2019-01-15T05:35:14.171Z,100000.95
2019-01-15T05:38:17.658Z,99991.22
2019-01-15T05:41:21.156Z,99988.59
2019-01-15T05:44:24.650Z,99986.04
2019-01-15T05:47:28.548Z,99986.90
2019-01-15T05:50:44.823Z,99986.12
2019-01-15T05:53:50.325Z,99974.28
2019-01-15T05:56:53.810Z,99991.30
2019-01-15T05:59:59.362Z,99994.78
2019-01-15T06:03:02.874Z,99988.67
2019-01-15T06:06:06.304Z,99994.37
2019-01-15T06:09:11.202Z,99987.80
2019-01-15T06:12:14.800Z,99984.80
2019-01-15T06:15:18.311Z,99997.58
2019-01-15T06:18:22.825Z,99987.88
2019-01-15T06:21:26.347Z,99994.78
2019-01-15T06:24:30.840Z,99993.63
2019-01-15T06:27:34.289Z,99999.72
2019-01-15T06:30:38.886Z,100000.50
2019-01-15T06:33:42.378Z,100003.59
2019-01-15T06:36:45.892Z,100008.84
2019-01-15T06:39:49.374Z,100011.96
2019-01-15T06:42:52.944Z,100014.11
2019-01-15T06:45:57.424Z,100021.70
2019-01-15T06:49:01.930Z,100021.62
2019-01-15T06:52:05.387Z,100022.08
2019-01-15T06:55:12.398Z,100015.61
2019-01-15T06:58:15.922Z,100014.59
2019-01-15T07:01:19.428Z,100017.67
2019-01-15T07:04:22.870Z,100025.94
2019-01-15T07:07:26.336Z,100022.08
2019-01-15T07:10:32.494Z,100025.56
2019-01-15T07:13:36.001Z,100023.87
2019-01-15T07:16:39.780Z,100035.71
2019-01-15T07:19:49.030Z,100034.02
2019-01-15T07:22:52.548Z,100038.42
2019-01-15T07:25:56.034Z,100030.98
2019-01-15T07:29:01.579Z,100025.72
2019-01-15T07:32:05.030Z,100032.78
2019-01-15T07:35:09.306Z,100035.34
2019-01-15T07:38:12.913Z,100032.30
2019-01-15T07:41:22.299Z,100021.78
2019-01-15T07:44:25.746Z,100034.55
2019-01-15T07:47:30.311Z,100022.42
2019-01-15T07:50:33.778Z,100019.72
2019-01-15T07:53:37.299Z,100029.30
2019-01-15T07:56:40.878Z,100025.05
2019-01-15T07:59:44.340Z,100026.90
2019-01-15T08:02:48.482Z,100029.38
2019-01-15T08:05:54.047Z,100040.83
2019-01-15T08:08:58.562Z,100031.22
2019-01-15T08:12:02.063Z,100029.91
2019-01-15T08:15:06.991Z,100029.45
2019-01-15T08:18:10.505Z,100038.28
2019-01-15T08:21:17.071Z,100026.45
2019-01-15T08:24:20.583Z,100028.59
2019-01-15T08:27:24.094Z,100037.34
2019-01-15T08:30:33.413Z,100030.55
2019-01-15T08:33:37.041Z,100029.23
2019-01-15T08:36:40.585Z,100024.27
2019-01-15T08:39:44.229Z,100019.47
2019-01-15T08:42:48.778Z,100021.94
2019-01-15T08:45:55.322Z,100013.30
2019-01-15T08:48:58.523Z,100017.24
2019-01-15T08:52:02.038Z,100018.15
2019-01-15T08:55:05.614Z,100019.87
2019-01-15T08:58:10.211Z,100009.35
2019-01-15T09:01:13.852Z,100021.27
2019-01-15T09:04:19.677Z,100030.61
2019-01-15T09:07:23.347Z,100031.47
2019-01-15T09:10:27.840Z,100027.74
2019-01-15T09:13:34.419Z,100035.93
2019-01-15T09:16:37.956Z,100024.47
2019-01-15T09:19:41.418Z,100013.41
2019-01-15T09:22:44.921Z,100004.58
2019-01-15T09:25:48.357Z,100005.36
2019-01-15T09:28:51.872Z,99999.53
2019-01-15T09:31:57.472Z,99981.61
2019-01-15T09:35:02.001Z,99977.17
2019-01-15T09:38:07.217Z,99973.44
2019-01-15T09:41:10.833Z,99970.44
2019-01-15T09:44:14.351Z,99977.30
2019-01-15T09:47:18.863Z,99989.55
2019-01-15T09:50:23.397Z,99993.83
2019-01-15T09:53:26.899Z,99975.41
2019-01-15T09:56:30.393Z,99982.36
2019-01-15T09:59:33.887Z,99975.33
2019-01-15T10:02:37.402Z,99976.94
2019-01-15T10:05:40.843Z,99966.41
2019-01-15T10:08:44.280Z,99959.13
2019-01-15T10:11:47.893Z,99949.59
2019-01-15T10:14:52.430Z,99946.68
2019-01-15T10:17:55.874Z,99950.46
2019-01-15T10:20:59.422Z,99950.30
2019-01-15T10:24:02.968Z,99948.20
2019-01-15T10:27:07.428Z,99944.05
2019-01-15T10:30:17.132Z,99940.55
2019-01-15T10:33:42.710Z,99947.91
2019-01-15T10:36:45.066Z,99944.25
2019-01-15T10:39:50.538Z,99931.50
2019-01-15T10:42:54.021Z,99947.41
2019-01-15T10:45:57.542Z,99936.48
2019-01-15T10:49:01.037Z,99940.92
2019-01-15T10:52:04.581Z,99941.30
2019-01-15T10:55:09.690Z,99927.19
2019-01-15T10:58:17.485Z,99934.71
2019-01-15T11:01:18.533Z,99936.97
2019-01-15T11:04:22.047Z,99930.19
2019-01-15T11:07:25.525Z,99924.15
2019-01-15T11:10:29.020Z,99922.30
2019-01-15T11:13:32.708Z,99927.16
2019-01-15T11:16:38.400Z,99931.80
2019-01-15T11:19:42.027Z,99919.38
2019-01-15T11:22:45.595Z,99920.16
2019-01-15T11:25:49.190Z,99918.38
2019-01-15T11:28:52.727Z,99909.92
2019-01-15T11:31:56.192Z,99919.13
2019-01-15T11:34:59.705Z,99907.86
2019-01-15T11:38:03.202Z,99897.25
2019-01-15T11:41:06.728Z,99899.31
2019-01-15T11:44:10.325Z,99889.06
2019-01-15T11:47:13.910Z,99893.87
2019-01-15T11:50:17.587Z,99893.42
2019-01-15T11:53:21.137Z,99890.79
2019-01-15T11:56:25.740Z,99873.69
2019-01-15T11:59:29.824Z,99881.95
2019-01-15T12:02:51.574Z,99867.10
2019-01-15T12:06:07.956Z,99871.87
2019-01-15T12:09:29.768Z,99872.36
2019-01-15T12:12:46.392Z,99862.75
2019-01-15T12:16:08.986Z,99867.64
2019-01-15T12:19:22.013Z,99861.44
2019-01-15T12:22:52.713Z,99860.12
2019-01-15T12:26:10.900Z,99860.03
2019-01-15T12:29:26.489Z,99854.86
2019-01-15T12:32:49.017Z,99851.85
2019-01-15T12:36:10.238Z,99848.11
2019-01-15T12:39:31.545Z,99851.51
2019-01-15T12:42:56.352Z,99863.36
2019-01-15T12:46:18.048Z,99854.69
2019-01-15T12:49:46.636Z,99856.95
2019-01-15T12:53:07.488Z,99837.20
2019-01-15T12:56:29.006Z,99846.70
2019-01-15T12:59:56.762Z,99843.44
2019-01-15T13:03:22.281Z,99851.34
2019-01-15T13:06:37.188Z,99855.28
2019-01-15T13:09:58.705Z,99851.51
2019-01-15T13:13:22.161Z,99858.09
2019-01-15T13:16:58.018Z,99853.20
2019-01-15T13:20:12.345Z,99849.62
2019-01-15T13:23:33.327Z,99846.53
2019-01-15T13:26:55.437Z,99848.70
2019-01-15T13:30:18.103Z,99850.48
2019-01-15T13:33:36.797Z,99848.39
2019-01-15T13:36:46.081Z,99851.70
2019-01-15T13:39:57.253Z,99844.27
2019-01-15T13:43:24.147Z,99839.32
2019-01-15T13:46:43.980Z,99844.67
2019-01-15T13:50:07.268Z,99847.59
2019-01-15T13:53:23.026Z,99854.16
2019-01-15T13:56:35.888Z,99844.95
2019-01-15T13:59:59.209Z,99847.01
2019-01-15T14:03:12.855Z,99839.11
2019-01-15T14:06:37.336Z,99836.48
2019-01-15T14:09:59.128Z,99834.63
2019-01-15T14:13:21.634Z,99840.43
2019-01-15T14:16:50.832Z,99849.88
2019-01-15T14:20:16.275Z,99832.77
2019-01-15T14:23:43.197Z,99821.55
2019-01-15T14:26:53.864Z,99817.52
2019-01-15T14:30:15.227Z,99810.93
2019-01-15T14:33:33.127Z,99801.72
2019-01-15T14:36:54.351Z,99804.63
2019-01-15T14:40:15.504Z,99812.35
2019-01-15T14:43:36.699Z,99808.49
2019-01-15T14:47:11.415Z,99800.59
2019-01-15T14:50:36.895Z,99787.25
2019-01-15T14:54:12.546Z,99792.80
2019-01-15T14:57:29.237Z,99786.13
2019-01-15T15:01:05.224Z,99786.50
2019-01-15T15:04:22.983Z,99770.91
2019-01-15T15:07:54.517Z,99773.33
2019-01-15T15:11:11.759Z,99765.25
2019-01-15T15:14:35.086Z,99764.03
2019-01-15T15:17:49.602Z,99763.75
2019-01-15T15:21:03.212Z,99770.43
2019-01-15T15:24:20.956Z,99779.95
2019-01-15T15:27:43.675Z,99772.78
2019-01-15T15:31:01.269Z,99771.66
2019-01-15T15:34:22.520Z,99781.27
2019-01-15T15:37:44.099Z,99780.70
2019-01-15T15:40:58.039Z,99793.21
2019-01-15T15:44:26.335Z,99776.38
2019-01-15T15:47:48.890Z,99780.70
2019-01-15T15:51:10.400Z,99780.70
2019-01-15T15:54:42.206Z,99783.50
2019-01-15T15:58:05.837Z,99784.27
2019-01-15T16:01:40.728Z,99776.01
2019-01-15T16:04:59.257Z,99774.88
2019-01-15T16:08:20.408Z,99777.11
2019-01-15T16:11:42.087Z,99778.83
2019-01-15T16:14:57.725Z,99777.20
2019-01-15T16:18:23.615Z,99789.91
2019-01-15T16:21:50.729Z,99774.69
2019-01-15T16:25:06.518Z,99780.05
2019-01-15T16:28:25.898Z,99780.87
2019-01-15T16:31:36.160Z,99782.95
2019-01-15T16:35:07.881Z,99776.74
2019-01-15T16:38:33.222Z,99781.73
2019-01-15T16:42:05.650Z,99772.80
2019-01-15T16:45:28.004Z,99765.57
2019-01-15T16:48:50.702Z,99769.03
2019-01-15T16:52:12.454Z,99763.77
2019-01-15T16:55:25.341Z,99751.36
2019-01-15T16:58:46.808Z,99755.31
2019-01-15T17:02:21.562Z,99751.73
2019-01-15T17:05:47.215Z,99745.52
2019-01-15T17:09:08.616Z,99750.05
2019-01-15T17:12:34.635Z,99734.06
2019-01-15T17:16:00.198Z,99740.16
2019-01-15T17:19:21.854Z,99736.11
2019-01-15T17:22:43.329Z,99732.16
2019-01-15T17:26:04.966Z,99735.20
2019-01-15T17:29:15.933Z,99725.98
2019-01-15T17:32:29.066Z,99715.81
2019-01-15T17:35:44.655Z,99711.77
2019-01-15T17:39:09.602Z,99718.36
2019-01-15T17:42:30.807Z,99718.27
2019-01-15T17:46:02.334Z,99711.28
2019-01-15T17:49:33.983Z,99706.78
2019-01-15T17:52:55.614Z,99717.22
2019-01-15T17:56:30.549Z,99720.70
2019-01-15T17:59:56.282Z,99736.52
2019-01-15T18:03:21.838Z,99727.66
2019-01-15T18:06:43.243Z,99739.33
2019-01-15T18:10:04.772Z,99725.39
2019-01-15T18:13:25.534Z,99729.83
2019-01-15T18:16:48.738Z,99729.00
2019-01-15T18:20:09.772Z,99725.13
2019-01-15T18:23:41.417Z,99719.84
2019-01-15T18:27:12.948Z,99718.05
2019-01-15T18:30:38.365Z,99718.20
2019-01-15T18:33:59.922Z,99711.13
2019-01-15T18:37:24.055Z,99701.98
2019-01-15T18:40:49.058Z,99706.86
2019-01-15T18:44:13.265Z,99708.61
2019-01-15T18:47:34.394Z,99711.69
2019-01-15T18:51:08.797Z,99714.13
2019-01-15T18:54:43.425Z,99710.14
2019-01-15T18:58:10.801Z,99708.30
2019-01-15T19:01:24.584Z,99709.22
2019-01-15T19:04:37.456Z,99701.98
2019-01-15T19:08:03.107Z,99700.11
2019-01-15T19:11:24.311Z,99697.42
2019-01-15T19:14:49.942Z,99701.91
2019-01-15T19:18:15.425Z,99696.42
2019-01-15T19:21:47.324Z,99704.90
2019-01-15T19:25:08.487Z,99695.45
2019-01-15T19:28:29.886Z,99698.25
2019-01-15T19:31:48.577Z,99699.73
2019-01-15T19:35:09.731Z,99694.50
2019-01-15T19:38:31.231Z,99694.55
2019-01-15T19:41:52.610Z,99696.78
2019-01-15T19:45:08.424Z,99702.73
2019-01-15T19:48:33.071Z,99709.52
2019-01-15T19:51:54.133Z,99706.09
2019-01-15T19:55:09.216Z,99698.92
2019-01-15T19:58:46.947Z,99704.93
2019-01-15T20:02:06.391Z,99702.08
2019-01-15T20:05:24.423Z,99703.77
2019-01-15T20:08:45.769Z,99699.59
2019-01-15T20:12:04.516Z,99702.02
2019-01-15T20:15:33.693Z,99711.67
2019-01-15T20:18:50.073Z,99718.67
2019-01-15T20:22:12.824Z,99713.06
2019-01-15T20:25:26.867Z,99710.78
2019-01-15T20:28:41.382Z,99711.89
2019-01-15T20:32:10.048Z,99720.33
2019-01-15T20:35:31.403Z,99715.04
2019-01-15T20:38:53.646Z,99715.89
2019-01-15T20:42:08.286Z,99733.22
2019-01-15T20:45:22.755Z,99734.08
2019-01-15T20:48:36.291Z,99736.52
2019-01-15T20:51:56.064Z,99729.30
2019-01-15T20:55:27.775Z,99730.98
2019-01-15T20:58:45.879Z,99727.77
2019-01-15T21:02:01.872Z,99728.52
2019-01-15T21:05:17.762Z,99726.94
2019-01-15T21:08:56.739Z,99739.02
2019-01-15T21:12:18.203Z,99733.55
2019-01-15T21:15:39.741Z,99737.52
2019-01-15T21:19:17.451Z,99732.98
2019-01-15T21:22:30.331Z,99730.41
2019-01-15T21:25:44.723Z,99727.91
2019-01-15T21:29:22.435Z,99721.44
2019-01-15T21:32:43.857Z,99729.16
2019-01-15T21:36:02.615Z,99726.30
2019-01-15T21:39:32.420Z,99728.84
2019-01-15T21:42:48.614Z,99728.16
2019-01-15T21:46:09.995Z,99718.90
2019-01-15T21:49:24.491Z,99729.23
2019-01-15T21:52:38.754Z,99732.63
2019-01-15T21:56:16.695Z,99732.63
2019-01-15T21:59:33.782Z,99726.37
2019-01-15T22:02:55.007Z,99729.76
2019-01-15T22:06:26.865Z,99723.50
2019-01-15T22:09:47.556Z,99726.93
2019-01-15T22:13:10.931Z,99719.71
2019-01-15T22:16:32.961Z,99729.83
2019-01-15T22:20:10.906Z,99734.64
2019-01-15T22:23:48.559Z,99726.10
2019-01-15T22:27:12.063Z,99728.28
2019-01-15T22:30:28.755Z,99725.64
2019-01-15T22:33:41.878Z,99724.09
2019-01-15T22:37:11.593Z,99735.89
2019-01-15T22:40:27.802Z,99735.39
2019-01-15T22:43:41.213Z,99740.22
2019-01-15T22:47:03.763Z,99730.34
2019-01-15T22:50:30.122Z,99730.23
2019-01-15T22:53:52.049Z,99735.64
2019-01-15T22:57:19.907Z,99741.67
2019-01-15T23:01:02.275Z,99744.33
2019-01-15T23:04:20.746Z,99754.05
2019-01-15T23:07:36.232Z,99752.16
2019-01-15T23:10:57.894Z,99739.78
2019-01-15T23:14:28.363Z,99742.78
2019-01-15T23:18:02.490Z,99757.69
2019-01-15T23:21:22.810Z,99755.30
2019-01-15T23:24:45.485Z,99749.89
2019-01-15T23:28:07.033Z,99753.86
2019-01-15T23:31:24.231Z,99759.55
2019-01-15T23:34:45.764Z,99754.14
2019-01-15T23:38:02.864Z,99756.68
2019-01-15T23:41:28.184Z,99747.42
2019-01-15T23:44:52.268Z,99755.71
2019-01-15T23:48:09.870Z,99753.78
2019-01-15T23:51:22.929Z,99755.96
2019-01-15T23:54:39.740Z,99748.02
2019-01-15T23:58:15.688Z,99749.98
